Time;durP1;ratioP1;P1;durP2;ratioP2;P2;SDS_P1;SDS_P2;PMS_P1;PMS_P2;Temp;Humidity;BMP_temperature;BMP_pressure;BME280_temperature;BME280_humidity;BME280_pressure;Samples;Min_cycle;Max_cycle;Signal;HPM_P1;HPM_P2
2021/12/04 00:01:09;;;;;;;4.43;0.93;;;;;;;;;;4856068;29;20446;-78
2021/12/04 00:03:35;;;;;;;2.33;1.38;;;;;;;;;;4852267;29;20026;-78
2021/12/04 00:06:06;;;;;;;13.77;7.45;;;;;;;;;;4845128;29;20366;-78
2021/12/04 00:08:35;;;;;;;11.63;6.65;;;;;;;;;;4860149;29;20021;-78
2021/12/04 00:11:01;;;;;;;9.77;5.55;;;;;;;;;;4855360;29;20033;-78
2021/12/04 00:13:28;;;;;;;16.25;9.07;;;;;;;;;;4862840;29;20446;-78
2021/12/04 00:15:54;;;;;;;7.55;5.13;;;;;;;;;;4863159;29;20033;-78
2021/12/04 00:18:20;;;;;;;40.78;23.48;;;;;;;;;;4861684;29;20030;-78
2021/12/04 00:20:46;;;;;;;27.20;16.13;;;;;;;;;;4862845;29;20060;-78
2021/12/04 00:23:12;;;;;;;22.98;14.80;;;;;;;;;;4851280;29;20053;-78
2021/12/04 00:25:38;;;;;;;18.45;11.52;;;;;;;;;;4861900;29;20534;-78
2021/12/04 00:28:04;;;;;;;10.13;6.22;;;;;;;;;;4862984;29;20026;-79
2021/12/04 00:30:30;;;;;;;12.45;7.93;;;;;;;;;;4862451;29;20040;-78
2021/12/04 00:33:20;;;;;;;3.97;1.30;;;;;;;;;;4862447;29;20033;-78
2021/12/04 00:35:55;;;;;;;5.68;3.80;;;;;;;;;;4861989;29;20056;-78
2021/12/04 00:51:41;;;;;;;15.13;9.55;;;;;;;;;;4843811;29;20042;-78
2021/12/04 00:54:10;;;;;;;17.25;14.02;;;;;;;;;;4851675;29;20029;-78
2021/12/04 00:56:36;;;;;;;14.57;10.23;;;;;;;;;;4862203;29;20561;-78
2021/12/04 00:59:03;;;;;;;11.63;8.55;;;;;;;;;;4862010;29;20053;-78
2021/12/04 01:01:29;;;;;;;9.88;6.38;;;;;;;;;;4862495;29;20076;-78
2021/12/04 01:03:55;;;;;;;35.63;29.15;;;;;;;;;;4861179;29;20029;-78
2021/12/04 01:06:22;;;;;;;3.80;2.53;;;;;;;;;;4860505;29;20034;-78
2021/12/04 01:08:48;;;;;;;2.90;1.02;;;;;;;;;;4861665;29;20030;-78
2021/12/04 01:11:14;;;;;;;7.70;4.68;;;;;;;;;;4861255;29;20036;-78
2021/12/04 01:13:40;;;;;;;2.25;1.05;;;;;;;;;;4860308;29;20041;-78
2021/12/04 01:16:06;;;;;;;6.30;3.65;;;;;;;;;;4862069;29;20049;-78
2021/12/04 01:18:33;;;;;;;2.33;1.75;;;;;;;;;;4861847;29;20526;-78
2021/12/04 01:20:59;;;;;;;7.65;5.78;;;;;;;;;;4861532;29;20141;-78
2021/12/04 01:23:25;;;;;;;20.17;14.18;;;;;;;;;;4860081;29;20058;-78
2021/12/04 01:25:51;;;;;;;10.23;7.03;;;;;;;;;;4861769;29;20033;-78
2021/12/04 01:28:17;;;;;;;8.73;7.80;;;;;;;;;;4861484;29;20486;-78
2021/12/04 01:30:43;;;;;;;4.65;3.35;;;;;;;;;;4862039;29;20474;-78
2021/12/04 01:33:09;;;;;;;5.00;2.95;;;;;;;;;;4861209;29;20375;-78
2021/12/04 01:35:35;;;;;;;2.40;0.82;;;;;;;;;;4861006;29;20044;-78
2021/12/04 01:38:01;;;;;;;1.85;1.05;;;;;;;;;;4861314;29;20063;-78
2021/12/04 01:40:27;;;;;;;13.18;11.77;;;;;;;;;;4860806;29;20507;-78
2021/12/04 01:42:54;;;;;;;2.78;1.42;;;;;;;;;;4861555;29;20070;-78
2021/12/04 01:45:20;;;;;;;5.30;4.40;;;;;;;;;;4861348;29;20088;-78
2021/12/04 01:47:46;;;;;;;0.50;0.50;;;;;;;;;;4861295;29;20451;-78
2021/12/04 01:50:12;;;;;;;2.15;1.40;;;;;;;;;;4861436;29;20030;-78
2021/12/04 01:52:38;;;;;;;4.60;1.02;;;;;;;;;;4860106;29;20030;-78
2021/12/04 01:55:04;;;;;;;3.03;1.77;;;;;;;;;;4861654;29;20108;-78
2021/12/04 01:57:32;;;;;;;2.72;1.52;;;;;;;;;;4861272;29;20037;-78
2021/12/04 01:59:58;;;;;;;4.60;3.47;;;;;;;;;;4861243;29;20033;-78
2021/12/04 02:02:24;;;;;;;1.60;1.20;;;;;;;;;;4861021;29;20034;-78
2021/12/04 02:04:50;;;;;;;2.65;1.23;;;;;;;;;;4859584;29;20040;-78
2021/12/04 02:07:19;;;;;;;2.00;0.75;;;;;;;;;;4858638;29;20040;-78
2021/12/04 02:09:45;;;;;;;0.65;0.40;;;;;;;;;;4860851;29;20018;-78
2021/12/04 02:12:11;;;;;;;1.25;0.60;;;;;;;;;;4860109;29;20082;-78
2021/12/04 02:14:39;;;;;;;1.60;0.80;;;;;;;;;;4861099;29;20029;-78
2021/12/04 02:17:05;;;;;;;2.90;2.47;;;;;;;;;;4861591;29;20057;-79
2021/12/04 02:19:31;;;;;;;1.95;0.90;;;;;;;;;;4860676;29;20490;-78
2021/12/04 02:21:57;;;;;;;1.90;1.15;;;;;;;;;;4851227;29;20038;-78
2021/12/04 02:24:23;;;;;;;1.65;1.00;;;;;;;;;;4842774;29;20061;-78
2021/12/04 02:26:50;;;;;;;1.27;0.55;;;;;;;;;;4842835;29;20026;-78
2021/12/04 02:29:17;;;;;;;3.65;0.70;;;;;;;;;;4842709;29;20069;-78
2021/12/04 02:31:47;;;;;;;1.45;0.70;;;;;;;;;;4843039;29;20053;-78
2021/12/04 02:34:18;;;;;;;1.85;0.70;;;;;;;;;;4859928;29;20034;-78
2021/12/04 02:36:44;;;;;;;1.98;0.80;;;;;;;;;;4861177;29;20034;-78
2021/12/04 02:39:20;;;;;;;1.02;0.50;;;;;;;;;;4861190;29;20382;-78
2021/12/04 02:41:46;;;;;;;1.17;0.70;;;;;;;;;;4860978;29;20036;-78
2021/12/04 02:44:12;;;;;;;1.60;0.70;;;;;;;;;;4861179;29;20139;-78
2021/12/04 02:46:38;;;;;;;0.95;0.50;;;;;;;;;;4854424;29;20037;-78
2021/12/04 02:49:06;;;;;;;1.05;0.60;;;;;;;;;;4842145;29;20585;-78
2021/12/04 02:51:32;;;;;;;2.05;0.63;;;;;;;;;;4841104;29;20034;-78
2021/12/04 02:53:58;;;;;;;3.75;0.70;;;;;;;;;;4842650;29;20391;-78
2021/12/04 02:56:25;;;;;;;0.90;0.50;;;;;;;;;;4842261;29;20101;-78
2021/12/04 02:58:56;;;;;;;1.65;0.60;;;;;;;;;;4842459;29;20030;-78
2021/12/04 03:01:22;;;;;;;1.48;0.77;;;;;;;;;;4842331;29;20030;-78
2021/12/04 03:03:48;;;;;;;0.60;0.50;;;;;;;;;;4841894;29;20038;-78
2021/12/04 03:06:14;;;;;;;2.05;0.60;;;;;;;;;;4842464;29;20037;-78
2021/12/04 03:08:41;;;;;;;2.70;0.82;;;;;;;;;;4860041;29;20040;-78
2021/12/04 03:11:07;;;;;;;1.92;0.88;;;;;;;;;;4860719;29;20018;-78
2021/12/04 03:13:33;;;;;;;0.95;0.40;;;;;;;;;;4859505;29;20068;-78
2021/12/04 03:15:59;;;;;;;1.08;0.60;;;;;;;;;;4842383;29;20101;-78
2021/12/04 03:18:26;;;;;;;0.98;0.68;;;;;;;;;;4841663;29;20033;-78
2021/12/04 03:20:54;;;;;;;2.92;0.50;;;;;;;;;;4841835;29;20074;-78
2021/12/04 03:23:29;;;;;;;4.25;0.73;;;;;;;;;;4840669;29;20026;-78
2021/12/04 03:25:57;;;;;;;12.10;0.88;;;;;;;;;;4842168;29;20101;-78
2021/12/04 03:28:24;;;;;;;1.48;0.65;;;;;;;;;;4843141;29;20060;-78
2021/12/04 03:31:10;;;;;;;1.00;0.70;;;;;;;;;;4860517;29;20485;-78
2021/12/04 03:41:50;;;;;;;2.03;0.60;;;;;;;;;;4860520;29;20065;-78
2021/12/04 03:44:16;;;;;;;1.75;0.50;;;;;;;;;;4860338;29;20038;-78
2021/12/04 03:46:44;;;;;;;0.50;0.38;;;;;;;;;;4859404;29;20041;-78
2021/12/04 03:49:11;;;;;;;1.17;0.60;;;;;;;;;;4842253;29;20034;-78
2021/12/04 03:51:37;;;;;;;0.65;0.43;;;;;;;;;;4841784;29;20758;-78
2021/12/04 03:54:03;;;;;;;2.20;0.60;;;;;;;;;;4854424;29;20466;-78
2021/12/04 03:56:29;;;;;;;0.88;0.40;;;;;;;;;;4860366;29;20470;-78
2021/12/04 03:58:55;;;;;;;1.60;0.55;;;;;;;;;;4860218;29;20041;-78
2021/12/04 04:01:21;;;;;;;1.27;0.63;;;;;;;;;;4860245;29;20033;-78
2021/12/04 04:03:48;;;;;;;0.68;0.50;;;;;;;;;;4856939;29;20454;-78
2021/12/04 04:06:14;;;;;;;1.05;0.70;;;;;;;;;;4860184;29;20022;-78
2021/12/04 04:08:41;;;;;;;0.63;0.43;;;;;;;;;;4842105;29;20445;-78
2021/12/04 04:11:07;;;;;;;1.75;0.60;;;;;;;;;;4841832;29;20026;-78
2021/12/04 04:13:33;;;;;;;2.38;0.80;;;;;;;;;;4850184;29;20517;-78
2021/12/04 04:16:00;;;;;;;2.13;0.60;;;;;;;;;;4841465;29;20101;-78
2021/12/04 04:18:30;;;;;;;1.98;0.77;;;;;;;;;;4841483;29;20026;-78
2021/12/04 04:20:56;;;;;;;2.10;0.60;;;;;;;;;;4841428;29;20046;-78
2021/12/04 04:23:22;;;;;;;1.52;0.60;;;;;;;;;;4841520;29;20506;-78
2021/12/04 04:25:48;;;;;;;0.73;0.60;;;;;;;;;;4841328;29;20030;-78
2021/12/04 04:28:14;;;;;;;4.35;0.70;;;;;;;;;;4842096;29;20034;-78
2021/12/04 04:30:40;;;;;;;0.82;0.50;;;;;;;;;;4841019;29;20049;-78
2021/12/04 04:33:07;;;;;;;4.28;0.55;;;;;;;;;;4841448;29;20030;-78
2021/12/04 04:35:34;;;;;;;0.80;0.40;;;;;;;;;;4841657;29;20030;-78
2021/12/04 05:13:18;;;;;;;1.17;0.60;;;;;;;;;;4844297;29;20527;-78
2021/12/04 05:20:55;;;;;;;1.50;0.85;;;;;;;;;;4852337;29;20054;-78
2021/12/04 05:23:22;;;;;;;1.65;0.70;;;;;;;;;;4861434;29;20041;-78
2021/12/04 05:25:50;;;;;;;1.73;0.68;;;;;;;;;;4862369;29;20098;-78
2021/12/04 05:28:16;;;;;;;1.27;0.65;;;;;;;;;;4862224;29;20032;-78
2021/12/04 05:30:42;;;;;;;1.35;0.70;;;;;;;;;;4862429;29;20470;-78
2021/12/04 05:33:08;;;;;;;1.23;0.60;;;;;;;;;;4848185;29;20123;-78
2021/12/04 05:35:34;;;;;;;1.15;0.55;;;;;;;;;;4843565;29;20045;-78
2021/12/04 05:38:00;;;;;;;0.82;0.52;;;;;;;;;;4842239;29;20448;-78
2021/12/04 05:40:26;;;;;;;3.45;0.50;;;;;;;;;;4843683;29;20042;-78
2021/12/04 05:43:00;;;;;;;1.42;0.68;;;;;;;;;;4843442;29;20037;-78
2021/12/04 05:45:27;;;;;;;1.13;0.50;;;;;;;;;;4860392;29;20025;-78
2021/12/04 05:53:24;;;;;;;0.93;0.63;;;;;;;;;;4786987;30;20116;-78
2021/12/04 05:55:53;;;;;;;3.00;0.60;;;;;;;;;;4786599;30;20138;-78
2021/12/04 05:58:30;;;;;;;1.42;0.47;;;;;;;;;;4786366;29;20024;-78
2021/12/04 06:00:57;;;;;;;0.90;0.55;;;;;;;;;;4786895;29;20049;-78
2021/12/04 06:03:24;;;;;;;4.15;0.77;;;;;;;;;;4786739;30;20088;-78
2021/12/04 06:05:50;;;;;;;0.90;0.60;;;;;;;;;;4786687;30;20039;-78
2021/12/04 06:08:17;;;;;;;2.50;0.65;;;;;;;;;;4786583;30;20043;-78
2021/12/04 06:10:43;;;;;;;1.25;0.70;;;;;;;;;;4786301;30;20547;-78
2021/12/04 06:13:10;;;;;;;2.60;1.20;;;;;;;;;;4786027;29;20067;-78
2021/12/04 06:15:36;;;;;;;1.13;0.60;;;;;;;;;;4786730;29;20043;-78
2021/12/04 06:18:02;;;;;;;1.83;0.80;;;;;;;;;;4786478;30;20455;-78
2021/12/04 06:23:14;;;;;;;4.97;2.90;;;;;;;;;;4786527;30;20050;-78
2021/12/04 06:25:40;;;;;;;2.40;0.98;;;;;;;;;;4786548;30;20420;-78
2021/12/04 06:28:06;;;;;;;77.05;40.55;;;;;;;;;;4840305;29;20471;-78
2021/12/04 06:30:37;;;;;;;3.92;2.28;;;;;;;;;;4861217;29;20105;-78
2021/12/04 06:33:04;;;;;;;3.72;2.00;;;;;;;;;;4861439;29;20021;-78
2021/12/04 06:35:31;;;;;;;3.95;2.40;;;;;;;;;;4852468;29;20424;-78
2021/12/04 06:37:57;;;;;;;3.05;1.90;;;;;;;;;;4843092;29;20037;-78
2021/12/04 06:40:26;;;;;;;2.33;1.38;;;;;;;;;;4842113;29;20108;-78
2021/12/04 06:42:53;;;;;;;3.22;1.70;;;;;;;;;;4842314;29;20063;-78
2021/12/04 06:45:19;;;;;;;8.45;5.75;;;;;;;;;;4842717;29;20034;-78
2021/12/04 06:47:48;;;;;;;6.55;4.95;;;;;;;;;;4841295;29;20026;-78
2021/12/04 06:50:23;;;;;;;3.00;1.95;;;;;;;;;;4840859;29;20034;-78
2021/12/04 06:52:49;;;;;;;1.77;1.20;;;;;;;;;;4856175;29;20407;-78
2021/12/04 06:55:17;;;;;;;4.47;3.22;;;;;;;;;;4842144;29;20038;-78
2021/12/04 06:57:44;;;;;;;8.93;6.03;;;;;;;;;;4856493;29;20083;-78
2021/12/04 07:00:11;;;;;;;13.23;9.48;;;;;;;;;;4842589;29;20041;-78
2021/12/04 07:02:37;;;;;;;5.10;2.70;;;;;;;;;;4841724;29;20100;-78
2021/12/04 07:05:04;;;;;;;5.43;3.05;;;;;;;;;;4842524;29;20402;-78
2021/12/04 07:07:30;;;;;;;11.18;4.32;;;;;;;;;;4845671;29;20026;-78
2021/12/04 07:09:56;;;;;;;8.80;6.05;;;;;;;;;;4851984;29;20276;-78
2021/12/04 07:12:22;;;;;;;27.02;16.35;;;;;;;;;;4860621;29;20029;-78
2021/12/04 07:14:48;;;;;;;69.85;46.60;;;;;;;;;;4860810;29;20124;-78
2021/12/04 07:17:14;;;;;;;6.97;4.00;;;;;;;;;;4860772;29;20072;-78
2021/12/04 07:19:40;;;;;;;13.48;8.27;;;;;;;;;;4860271;29;20057;-78
2021/12/04 07:22:08;;;;;;;12.00;7.15;;;;;;;;;;4860504;29;20037;-78
2021/12/04 07:24:34;;;;;;;2.05;1.15;;;;;;;;;;4860107;29;20025;-78
2021/12/04 07:27:00;;;;;;;27.52;18.15;;;;;;;;;;4860504;29;20029;-78
2021/12/04 07:29:26;;;;;;;6.53;4.00;;;;;;;;;;4858540;29;20030;-78
2021/12/04 07:31:54;;;;;;;9.32;4.60;;;;;;;;;;4860455;29;20034;-78
2021/12/04 07:34:20;;;;;;;10.13;6.70;;;;;;;;;;4860234;29;20043;-78
2021/12/04 07:36:46;;;;;;;10.77;7.20;;;;;;;;;;4860445;29;20064;-78
2021/12/04 07:39:12;;;;;;;5.07;2.65;;;;;;;;;;4859964;29;20036;-78
2021/12/04 07:41:42;;;;;;;12.25;7.85;;;;;;;;;;4860253;29;20029;-78
2021/12/04 07:44:08;;;;;;;33.22;20.42;;;;;;;;;;4852822;29;20049;-78
2021/12/04 07:46:35;;;;;;;3.20;1.80;;;;;;;;;;4848196;29;20026;-78
2021/12/04 07:49:01;;;;;;;3.28;1.58;;;;;;;;;;4850465;29;20082;-78
2021/12/04 07:51:27;;;;;;;2.13;0.93;;;;;;;;;;4859603;29;20722;-78
2021/12/04 07:53:53;;;;;;;1.17;0.70;;;;;;;;;;4858492;29;20595;-78
2021/12/04 07:56:19;;;;;;;16.50;11.82;;;;;;;;;;4852528;29;20061;-78
2021/12/04 07:58:45;;;;;;;1.58;0.93;;;;;;;;;;4848340;29;20030;-78
2021/12/04 08:01:12;;;;;;;6.63;1.02;;;;;;;;;;4844358;29;20034;-78
2021/12/04 08:03:38;;;;;;;3.88;1.73;;;;;;;;;;4846723;29;20030;-79
2021/12/04 08:06:05;;;;;;;4.72;2.83;;;;;;;;;;4847120;29;20036;-79
2021/12/04 08:08:31;;;;;;;0.88;0.40;;;;;;;;;;4855830;29;20082;-78
2021/12/04 08:10:57;;;;;;;4.35;2.92;;;;;;;;;;4848505;29;20037;-78
2021/12/04 08:13:23;;;;;;;2.65;0.73;;;;;;;;;;4844465;29;20052;-79
2021/12/04 08:15:49;;;;;;;5.15;1.95;;;;;;;;;;4849812;29;20034;-81
2021/12/04 08:18:15;;;;;;;0.50;0.40;;;;;;;;;;4845251;29;20037;-78
2021/12/04 08:20:41;;;;;;;6.50;3.90;;;;;;;;;;4844964;29;20430;-78
2021/12/04 08:23:07;;;;;;;0.85;0.60;;;;;;;;;;4844682;29;20042;-78
2021/12/04 08:25:34;;;;;;;5.72;3.67;;;;;;;;;;4852422;29;20075;-78
2021/12/04 08:28:01;;;;;;;4.00;2.30;;;;;;;;;;4845138;29;20097;-78
2021/12/04 08:30:29;;;;;;;1.05;0.50;;;;;;;;;;4847772;29;20074;-76
2021/12/04 08:32:56;;;;;;;2.15;1.25;;;;;;;;;;4862301;29;20025;-78
2021/12/04 08:35:24;;;;;;;2.65;0.93;;;;;;;;;;4850383;29;20034;-78
2021/12/04 08:37:50;;;;;;;13.00;3.38;;;;;;;;;;4844313;29;20056;-79
2021/12/04 08:40:17;;;;;;;6.28;4.32;;;;;;;;;;4844808;29;20034;-79
2021/12/04 08:42:44;;;;;;;1.17;0.80;;;;;;;;;;4844632;29;20037;-78
2021/12/04 08:45:10;;;;;;;3.30;0.93;;;;;;;;;;4857838;29;20386;-78
2021/12/04 08:47:38;;;;;;;6.35;0.85;;;;;;;;;;4863115;29;20038;-78
2021/12/04 08:50:05;;;;;;;7.38;1.45;;;;;;;;;;4863176;29;20097;-78
2021/12/04 08:52:31;;;;;;;3.38;2.13;;;;;;;;;;4862006;29;20037;-79
2021/12/04 08:54:57;;;;;;;1.95;1.00;;;;;;;;;;4863183;29;20025;-79
2021/12/04 08:57:23;;;;;;;5.60;1.35;;;;;;;;;;4861733;29;20037;-79
2021/12/04 08:59:52;;;;;;;4.05;1.15;;;;;;;;;;4854305;29;20026;-79
2021/12/04 09:02:18;;;;;;;2.95;0.68;;;;;;;;;;4844777;29;20037;-79
2021/12/04 09:04:46;;;;;;;3.90;1.02;;;;;;;;;;4843778;29;20061;-79
2021/12/04 09:07:13;;;;;;;5.72;1.15;;;;;;;;;;4859730;29;20025;-78
2021/12/04 09:09:39;;;;;;;1.52;0.88;;;;;;;;;;4862616;29;20025;-78
2021/12/04 09:12:06;;;;;;;1.50;0.60;;;;;;;;;;4862715;29;20025;-78
2021/12/04 09:14:34;;;;;;;0.65;0.50;;;;;;;;;;4858016;29;20037;-78
2021/12/04 09:17:01;;;;;;;322.58;84.18;;;;;;;;;;4857326;29;20062;-78
2021/12/04 09:19:27;;;;;;;230.63;87.00;;;;;;;;;;4843779;29;20033;-78
2021/12/04 09:21:54;;;;;;;6.65;2.13;;;;;;;;;;4844216;29;20491;-78
2021/12/04 09:24:38;;;;;;;5.57;1.52;;;;;;;;;;4843637;29;20034;-78
2021/12/04 09:27:13;;;;;;;10.00;2.90;;;;;;;;;;4843565;29;20026;-78
2021/12/04 09:30:21;;;;;;;5.38;1.67;;;;;;;;;;4842580;29;20026;-78
2021/12/04 09:59:07;;;;;;;2.25;0.70;;;;;;;;;;4843603;29;20105;-79
2021/12/04 10:00:05;;;;;;;0.88;0.63;;;;;;;;;;4853370;29;20504;-79
2021/12/04 10:02:42;;;;;;;4.05;1.00;;;;;;;;;;4842925;29;20117;-80
2021/12/04 10:24:10;;;;;;;6.47;0.80;;;;;;;;;;4796209;29;20042;-79
2021/12/04 10:34:56;;;;;;;2.03;0.70;;;;;;;;;;4791159;29;20070;-80
2021/12/04 10:37:25;;;;;;;2.33;0.90;;;;;;;;;;4791478;29;20047;-79
2021/12/04 10:39:56;;;;;;;2.13;0.80;;;;;;;;;;4788226;29;20176;-78
2021/12/04 10:42:31;;;;;;;1.98;0.70;;;;;;;;;;4795721;29;20527;-77
2021/12/04 10:44:57;;;;;;;7.15;0.88;;;;;;;;;;4802811;29;20043;-77
2021/12/04 10:47:26;;;;;;;0.85;0.60;;;;;;;;;;4801301;29;20453;-77
2021/12/04 10:52:52;;;;;;;1.42;0.73;;;;;;;;;;4850914;29;20457;-76
2021/12/04 11:03:16;;;;;;;2.97;0.85;;;;;;;;;;4851878;29;20040;-76
2021/12/04 11:43:29;;;;;;;3.58;0.70;;;;;;;;;;4802796;29;20122;-78
2021/12/04 11:48:27;;;;;;;1.88;0.75;;;;;;;;;;4802869;29;20498;-77
2021/12/04 11:50:54;;;;;;;1.38;0.60;;;;;;;;;;4803290;29;20031;-77
2021/12/04 11:53:20;;;;;;;1.88;0.82;;;;;;;;;;4795117;29;20055;-77
2021/12/04 11:55:48;;;;;;;0.93;0.60;;;;;;;;;;4800405;29;20047;-80
2021/12/04 11:58:46;;;;;;;1.67;0.90;;;;;;;;;;4806116;29;20113;-79
2021/12/04 12:01:35;;;;;;;1.50;0.70;;;;;;;;;;4787852;30;20495;-84
2021/12/04 12:04:04;;;;;;;1.08;0.68;;;;;;;;;;4787251;29;20073;-78
2021/12/04 12:06:33;;;;;;;1.42;0.80;;;;;;;;;;4787580;29;20135;-80
2021/12/04 12:09:12;;;;;;;2.13;0.80;;;;;;;;;;4777201;30;20458;-80
2021/12/04 12:11:46;;;;;;;1.15;0.70;;;;;;;;;;4786613;30;20126;-80
2021/12/04 12:14:14;;;;;;;1.95;0.80;;;;;;;;;;4785670;30;20073;-79
2021/12/04 12:16:42;;;;;;;2.22;0.80;;;;;;;;;;4767317;30;21585;-80
2021/12/04 12:19:22;;;;;;;1.45;0.73;;;;;;;;;;4771877;29;20039;-79
2021/12/04 12:22:01;;;;;;;2.45;0.90;;;;;;;;;;4812297;29;20616;-80
2021/12/04 12:36:05;;;;;;;1.80;0.80;;;;;;;;;;4774475;29;20204;-79
2021/12/04 12:38:31;;;;;;;3.13;1.08;;;;;;;;;;4819637;29;20045;-79
2021/12/04 12:41:02;;;;;;;7.63;0.90;;;;;;;;;;4808813;29;20062;-79
2021/12/04 12:43:48;;;;;;;16.08;1.67;;;;;;;;;;4797932;29;20026;-79
2021/12/04 12:46:14;;;;;;;7.28;1.45;;;;;;;;;;4790539;29;20113;-79
2021/12/04 12:48:43;;;;;;;5.43;1.30;;;;;;;;;;4805167;29;20038;-79
2021/12/04 12:51:11;;;;;;;6.97;1.48;;;;;;;;;;4804140;29;20946;-79
2021/12/04 12:53:42;;;;;;;5.28;1.20;;;;;;;;;;4808439;29;20742;-79
2021/12/04 12:56:10;;;;;;;4.72;1.20;;;;;;;;;;4815732;29;20105;-79
2021/12/04 12:58:59;;;;;;;8.80;1.23;;;;;;;;;;4793086;29;20052;-79
2021/12/04 13:12:46;;;;;;;11.77;2.30;;;;;;;;;;4816640;29;20045;-78
2021/12/04 13:15:12;;;;;;;11.85;2.10;;;;;;;;;;4840688;29;20138;-78
2021/12/04 13:17:40;;;;;;;8.30;1.98;;;;;;;;;;4840888;29;20499;-79
2021/12/04 13:20:07;;;;;;;11.98;2.00;;;;;;;;;;4840555;29;20092;-78
2021/12/04 13:22:34;;;;;;;8.05;2.03;;;;;;;;;;4840913;29;20026;-78
2021/12/04 13:25:04;;;;;;;12.13;2.17;;;;;;;;;;4840670;29;20086;-78
2021/12/04 13:30:04;;;;;;;13.13;2.63;;;;;;;;;;4854172;29;20467;-78
2021/12/04 13:32:37;;;;;;;10.25;2.13;;;;;;;;;;4853198;29;20064;-78
2021/12/04 13:35:05;;;;;;;16.63;2.67;;;;;;;;;;4850553;29;20044;-78
2021/12/04 13:37:31;;;;;;;10.07;2.10;;;;;;;;;;4843466;29;20113;-78
2021/12/04 13:40:04;;;;;;;19.67;3.08;;;;;;;;;;4848928;29;20044;-78
2021/12/04 13:42:31;;;;;;;12.68;2.55;;;;;;;;;;4855911;29;20116;-78
2021/12/04 13:44:58;;;;;;;14.48;3.42;;;;;;;;;;4859013;29;20094;-78
2021/12/04 13:47:25;;;;;;;14.52;3.03;;;;;;;;;;4857256;29;20030;-78
2021/12/04 13:50:00;;;;;;;21.25;3.15;;;;;;;;;;4847064;29;20490;-78
2021/12/04 13:52:27;;;;;;;16.25;2.58;;;;;;;;;;4845274;29;20030;-78
2021/12/04 13:54:55;;;;;;;18.63;2.33;;;;;;;;;;4845538;29;20435;-78
2021/12/04 13:57:21;;;;;;;12.23;2.72;;;;;;;;;;4846537;29;20540;-78
2021/12/04 13:59:47;;;;;;;18.95;4.18;;;;;;;;;;4839888;29;20117;-78
2021/12/04 14:02:23;;;;;;;17.35;3.40;;;;;;;;;;4849190;29;20066;-78
2021/12/04 14:04:56;;;;;;;17.42;4.13;;;;;;;;;;4853106;29;20128;-78
2021/12/04 14:07:22;;;;;;;18.58;3.03;;;;;;;;;;4851452;29;20040;-78
2021/12/04 14:09:48;;;;;;;23.98;3.85;;;;;;;;;;4842430;29;20041;-78
2021/12/04 14:12:14;;;;;;;22.95;3.90;;;;;;;;;;4851442;29;20061;-78
2021/12/04 14:14:40;;;;;;;16.65;3.05;;;;;;;;;;4846708;29;20406;-78
2021/12/04 14:17:11;;;;;;;12.48;2.75;;;;;;;;;;4851010;29;20264;-78
2021/12/04 14:19:37;;;;;;;25.48;3.97;;;;;;;;;;4847910;29;20038;-78
2021/12/04 14:22:03;;;;;;;31.65;13.65;;;;;;;;;;4851552;29;20084;-78
2021/12/04 14:24:31;;;;;;;16.27;2.85;;;;;;;;;;4855638;29;20042;-78
2021/12/04 14:26:58;;;;;;;18.75;3.63;;;;;;;;;;4847587;29;20021;-78
2021/12/04 14:29:26;;;;;;;11.98;2.17;;;;;;;;;;4855297;29;20030;-78
2021/12/04 14:31:53;;;;;;;16.55;3.35;;;;;;;;;;4856123;29;20052;-78
2021/12/04 14:34:23;;;;;;;15.57;2.15;;;;;;;;;;4857315;29;20099;-78
2021/12/04 14:37:12;;;;;;;17.23;3.33;;;;;;;;;;4871422;29;20029;-78
2021/12/04 14:39:42;;;;;;;15.25;2.92;;;;;;;;;;4847498;29;20386;-78
2021/12/04 14:42:16;;;;;;;19.67;3.50;;;;;;;;;;4854897;29;20210;-78
2021/12/04 14:44:46;;;;;;;14.43;3.33;;;;;;;;;;4853688;29;20036;-78
2021/12/04 14:47:13;;;;;;;19.60;3.85;;;;;;;;;;4856901;29;20510;-78
2021/12/04 14:49:41;;;;;;;17.73;3.28;;;;;;;;;;4842613;29;20061;-78
2021/12/04 14:52:07;;;;;;;15.20;3.60;;;;;;;;;;4856050;29;20108;-78
2021/12/04 14:54:36;;;;;;;13.85;2.97;;;;;;;;;;4847143;29;20481;-79
2021/12/04 14:57:02;;;;;;;20.80;3.45;;;;;;;;;;4847176;29;20153;-79
2021/12/04 14:59:32;;;;;;;23.45;4.03;;;;;;;;;;4857134;29;20056;-79
2021/12/04 15:01:59;;;;;;;16.67;2.70;;;;;;;;;;4857719;29;20032;-78
2021/12/04 15:04:25;;;;;;;20.08;3.35;;;;;;;;;;4856853;29;20033;-78
2021/12/04 15:06:51;;;;;;;21.58;2.72;;;;;;;;;;4855359;29;20028;-78
2021/12/04 15:09:17;;;;;;;15.25;3.30;;;;;;;;;;4851037;29;20026;-78
2021/12/04 15:11:48;;;;;;;19.95;2.80;;;;;;;;;;4855213;29;20079;-78
2021/12/04 15:14:20;;;;;;;14.88;2.58;;;;;;;;;;4847021;29;20049;-78
2021/12/04 15:16:48;;;;;;;;;;;;;;;;;;4851225;29;20085;-78
2021/12/04 15:19:25;;;;;;;15.98;2.55;;;;;;;;;;4850128;29;19918;-78
2021/12/04 15:21:57;;;;;;;19.15;2.63;;;;;;;;;;4859245;29;20124;-78
2021/12/04 15:24:25;;;;;;;12.80;2.37;;;;;;;;;;4858855;29;20038;-78
2021/12/04 15:26:53;;;;;;;22.92;3.38;;;;;;;;;;4859104;29;20068;-77
2021/12/04 15:29:21;;;;;;;16.40;3.30;;;;;;;;;;4859858;29;20057;-78
2021/12/04 15:31:48;;;;;;;12.45;2.55;;;;;;;;;;4852762;29;20030;-77
2021/12/04 15:34:15;;;;;;;16.33;3.05;;;;;;;;;;4852730;29;20042;-77
2021/12/04 15:36:45;;;;;;;12.25;2.35;;;;;;;;;;4843557;29;20085;-77
2021/12/04 15:39:18;;;;;;;19.48;2.35;;;;;;;;;;4842206;29;20121;-77
2021/12/04 15:41:59;;;;;;;11.05;2.17;;;;;;;;;;4854342;29;20025;-78
2021/12/04 15:55:14;;;;;;;10.60;2.40;;;;;;;;;;4856815;29;20045;-76
2021/12/04 15:57:41;;;;;;;15.68;1.90;;;;;;;;;;4873072;29;20033;-77
2021/12/04 16:00:12;;;;;;;8.57;3.15;;;;;;;;;;4858640;29;20471;-76
2021/12/04 16:02:39;;;;;;;12.47;1.93;;;;;;;;;;4857502;29;20094;-77
2021/12/04 16:05:07;;;;;;;9.63;2.08;;;;;;;;;;4853870;29;20053;-77
2021/12/04 16:07:33;;;;;;;10.00;1.50;;;;;;;;;;4849379;29;20022;-77
2021/12/04 16:10:04;;;;;;;9.25;1.92;;;;;;;;;;4849565;29;20026;-78
2021/12/04 16:12:30;;;;;;;11.02;2.08;;;;;;;;;;4847435;29;20113;-79
2021/12/04 16:14:57;;;;;;;14.48;2.85;;;;;;;;;;4855336;29;20032;-78
2021/12/04 16:17:24;;;;;;;10.40;2.33;;;;;;;;;;4847837;29;20032;-79
2021/12/04 16:20:06;;;;;;;11.18;2.00;;;;;;;;;;4846159;29;20061;-78
2021/12/04 16:22:37;;;;;;;11.98;1.98;;;;;;;;;;4847884;29;20034;-79
2021/12/04 16:25:08;;;;;;;13.27;2.85;;;;;;;;;;4846173;29;20439;-77
2021/12/04 16:27:45;;;;;;;16.35;3.50;;;;;;;;;;4844651;29;20051;-78
2021/12/04 16:30:37;;;;;;;13.32;2.72;;;;;;;;;;4849564;29;20022;-78
2021/12/04 16:33:16;;;;;;;12.45;5.07;;;;;;;;;;4847599;29;20116;-78
2021/12/04 16:35:54;;;;;;;10.43;1.85;;;;;;;;;;4856195;29;20026;-77
2021/12/04 16:38:21;;;;;;;11.77;3.25;;;;;;;;;;4852478;29;20090;-76
2021/12/04 16:40:47;;;;;;;12.38;2.60;;;;;;;;;;4855891;29;20478;-78
2021/12/04 16:43:19;;;;;;;12.15;2.90;;;;;;;;;;4853025;29;20374;-78
2021/12/04 16:45:47;;;;;;;10.37;2.27;;;;;;;;;;4852363;29;20025;-78
2021/12/04 16:48:13;;;;;;;7.43;2.28;;;;;;;;;;4855960;29;20036;-78
2021/12/04 16:58:34;;;;;;;11.60;2.50;;;;;;;;;;4853861;29;20041;-78
2021/12/04 17:01:01;;;;;;;15.60;2.90;;;;;;;;;;4852828;29;20491;-78
2021/12/04 17:03:27;;;;;;;11.13;1.88;;;;;;;;;;4844409;29;20399;-78
2021/12/04 17:05:53;;;;;;;9.00;2.00;;;;;;;;;;4855979;29;20502;-77
2021/12/04 17:08:20;;;;;;;13.38;2.13;;;;;;;;;;4849211;29;20094;-77
2021/12/04 17:10:46;;;;;;;10.85;2.05;;;;;;;;;;4851280;29;20485;-78
2021/12/04 17:13:12;;;;;;;10.25;2.60;;;;;;;;;;4855024;29;20033;-78
2021/12/04 17:15:46;;;;;;;4.38;1.20;;;;;;;;;;4857596;29;20034;-77
2021/12/04 17:18:16;;;;;;;22.48;2.50;;;;;;;;;;4855535;29;20037;-78
2021/12/04 17:20:42;;;;;;;6.43;1.50;;;;;;;;;;4852203;29;20414;-78
2021/12/04 17:23:08;;;;;;;12.38;2.13;;;;;;;;;;4858393;29;20109;-78
2021/12/04 17:25:36;;;;;;;6.75;1.65;;;;;;;;;;4857071;29;20067;-79
2021/12/04 17:28:02;;;;;;;12.98;2.42;;;;;;;;;;4849686;29;20030;-78
2021/12/04 17:30:29;;;;;;;9.38;1.63;;;;;;;;;;4850213;29;20025;-78
2021/12/04 17:32:56;;;;;;;8.18;1.67;;;;;;;;;;4854636;29;20501;-78
2021/12/04 17:35:22;;;;;;;10.20;2.33;;;;;;;;;;4849556;29;20998;-78
2021/12/04 17:37:50;;;;;;;6.90;1.67;;;;;;;;;;4873894;29;20033;-78
2021/12/04 17:40:17;;;;;;;9.82;2.00;;;;;;;;;;4853745;29;20391;-78
2021/12/04 17:42:43;;;;;;;12.77;2.08;;;;;;;;;;4854462;29;20025;-78
2021/12/04 17:45:10;;;;;;;9.65;2.30;;;;;;;;;;4852774;29;20601;-78
2021/12/04 17:47:41;;;;;;;10.07;2.97;;;;;;;;;;4857173;29;20029;-78
2021/12/04 17:50:09;;;;;;;11.02;2.40;;;;;;;;;;4849236;29;20064;-78
2021/12/04 17:52:35;;;;;;;12.15;1.80;;;;;;;;;;4860169;29;20025;-78
2021/12/04 17:55:01;;;;;;;9.55;2.10;;;;;;;;;;4865214;29;20467;-78
2021/12/04 17:57:27;;;;;;;9.32;1.83;;;;;;;;;;4846287;29;20036;-78
2021/12/04 17:59:53;;;;;;;7.45;2.00;;;;;;;;;;4845804;29;20030;-78
2021/12/04 18:02:19;;;;;;;17.65;3.67;;;;;;;;;;4860180;29;20044;-78
2021/12/04 18:04:47;;;;;;;11.20;2.20;;;;;;;;;;4859545;29;20038;-78
2021/12/04 18:07:15;;;;;;;9.38;2.20;;;;;;;;;;4854824;29;20105;-78
2021/12/04 18:09:43;;;;;;;10.15;1.63;;;;;;;;;;4853678;29;20090;-78
2021/12/04 18:12:32;;;;;;;12.30;2.50;;;;;;;;;;4857081;29;20486;-78
2021/12/04 18:15:00;;;;;;;11.98;2.22;;;;;;;;;;4850049;29;20030;-78
2021/12/04 18:17:26;;;;;;;12.10;2.38;;;;;;;;;;4855426;29;20409;-78
2021/12/04 18:19:52;;;;;;;15.10;2.38;;;;;;;;;;4873016;29;20065;-79
2021/12/04 18:22:18;;;;;;;11.77;2.47;;;;;;;;;;4841949;29;20072;-79